sensor_id;sensor_type;location;lat;lon;timestamp;temperature;humidity
7254;DHT22;4060;49.186;9.226;2022-08-11T00:00:43;30.50;24.70
7254;DHT22;4060;49.186;9.226;2022-08-11T00:03:15;30.40;24.80
7254;DHT22;4060;49.186;9.226;2022-08-11T00:05:52;30.40;24.80
7254;DHT22;4060;49.186;9.226;2022-08-11T00:08:23;30.40;24.80
7254;DHT22;4060;49.186;9.226;2022-08-11T00:10:56;30.40;24.80
7254;DHT22;4060;49.186;9.226;2022-08-11T00:13:33;30.30;24.80
7254;DHT22;4060;49.186;9.226;2022-08-11T00:16:13;30.30;24.90
7254;DHT22;4060;49.186;9.226;2022-08-11T00:18:44;30.30;24.90
7254;DHT22;4060;49.186;9.226;2022-08-11T00:21:14;30.30;25.00
7254;DHT22;4060;49.186;9.226;2022-08-11T00:23:51;30.30;25.00
7254;DHT22;4060;49.186;9.226;2022-08-11T00:26:23;30.30;25.00
7254;DHT22;4060;49.186;9.226;2022-08-11T00:28:54;30.20;25.00
7254;DHT22;4060;49.186;9.226;2022-08-11T00:31:31;30.20;25.10
7254;DHT22;4060;49.186;9.226;2022-08-11T00:34:02;30.20;25.20
7254;DHT22;4060;49.186;9.226;2022-08-11T00:36:42;30.20;25.20
7254;DHT22;4060;49.186;9.226;2022-08-11T00:39:12;30.20;25.20
7254;DHT22;4060;49.186;9.226;2022-08-11T00:41:46;30.10;25.20
7254;DHT22;4060;49.186;9.226;2022-08-11T00:44:30;30.10;25.20
7254;DHT22;4060;49.186;9.226;2022-08-11T00:47:17;30.10;25.30
7254;DHT22;4060;49.186;9.226;2022-08-11T00:50:01;30.10;25.30
7254;DHT22;4060;49.186;9.226;2022-08-11T00:53:01;30.00;25.30
7254;DHT22;4060;49.186;9.226;2022-08-11T00:56:12;30.00;25.40
7254;DHT22;4060;49.186;9.226;2022-08-11T01:01:58;30.00;25.50
7254;DHT22;4060;49.186;9.226;2022-08-11T01:11:19;29.90;25.60
7254;DHT22;4060;49.186;9.226;2022-08-11T01:17:54;29.80;25.60
7254;DHT22;4060;49.186;9.226;2022-08-11T01:21:08;29.80;25.60
7254;DHT22;4060;49.186;9.226;2022-08-11T01:24:26;29.70;25.70
7254;DHT22;4060;49.186;9.226;2022-08-11T01:27:34;29.70;25.80
7254;DHT22;4060;49.186;9.226;2022-08-11T01:34:07;29.60;25.80
7254;DHT22;4060;49.186;9.226;2022-08-11T01:40:21;29.60;26.00
7254;DHT22;4060;49.186;9.226;2022-08-11T01:43:35;29.50;26.00
7254;DHT22;4060;49.186;9.226;2022-08-11T01:46:31;29.50;26.00
7254;DHT22;4060;49.186;9.226;2022-08-11T01:49:11;29.50;26.00
7254;DHT22;4060;49.186;9.226;2022-08-11T01:52:10;29.50;26.10
7254;DHT22;4060;49.186;9.226;2022-08-11T01:54:52;29.50;26.20
7254;DHT22;4060;49.186;9.226;2022-08-11T01:57:35;29.40;26.20
7254;DHT22;4060;49.186;9.226;2022-08-11T02:00:11;29.40;26.20
7254;DHT22;4060;49.186;9.226;2022-08-11T02:02:57;29.40;26.20
7254;DHT22;4060;49.186;9.226;2022-08-11T02:05:52;29.40;26.30
7254;DHT22;4060;49.186;9.226;2022-08-11T02:08:41;29.40;26.30
7254;DHT22;4060;49.186;9.226;2022-08-11T02:11:23;29.30;26.30
7254;DHT22;4060;49.186;9.226;2022-08-11T02:14:20;29.30;26.40
7254;DHT22;4060;49.186;9.226;2022-08-11T02:17:05;29.30;26.40
7254;DHT22;4060;49.186;9.226;2022-08-11T02:19:47;29.30;26.40
7254;DHT22;4060;49.186;9.226;2022-08-11T02:22:45;29.20;26.40
7254;DHT22;4060;49.186;9.226;2022-08-11T02:25:44;29.20;26.40
7254;DHT22;4060;49.186;9.226;2022-08-11T02:28:21;29.20;26.50
7254;DHT22;4060;49.186;9.226;2022-08-11T02:31:02;29.20;26.50
7254;DHT22;4060;49.186;9.226;2022-08-11T02:33:57;29.20;26.60
7254;DHT22;4060;49.186;9.226;2022-08-11T02:36:39;29.10;26.60
7254;DHT22;4060;49.186;9.226;2022-08-11T02:39:14;29.10;26.60
7254;DHT22;4060;49.186;9.226;2022-08-11T02:41:52;29.10;26.60
7254;DHT22;4060;49.186;9.226;2022-08-11T02:44:56;29.10;26.70
7254;DHT22;4060;49.186;9.226;2022-08-11T02:47:38;29.10;26.70
7254;DHT22;4060;49.186;9.226;2022-08-11T02:50:30;29.00;26.70
7254;DHT22;4060;49.186;9.226;2022-08-11T02:53:10;29.00;26.70
7254;DHT22;4060;49.186;9.226;2022-08-11T02:55:51;29.00;26.80
7254;DHT22;4060;49.186;9.226;2022-08-11T02:58:35;29.00;26.80
7254;DHT22;4060;49.186;9.226;2022-08-11T03:01:14;29.00;26.80
7254;DHT22;4060;49.186;9.226;2022-08-11T03:03:54;28.90;26.80
7254;DHT22;4060;49.186;9.226;2022-08-11T03:06:37;28.90;26.90
7254;DHT22;4060;49.186;9.226;2022-08-11T03:09:16;28.90;26.90
7254;DHT22;4060;49.186;9.226;2022-08-11T03:11:59;28.90;26.90
7254;DHT22;4060;49.186;9.226;2022-08-11T03:14:51;28.90;27.00
7254;DHT22;4060;49.186;9.226;2022-08-11T03:17:49;28.80;26.90
7254;DHT22;4060;49.186;9.226;2022-08-11T03:20:35;28.80;27.00
7254;DHT22;4060;49.186;9.226;2022-08-11T03:23:13;28.80;27.10
7254;DHT22;4060;49.186;9.226;2022-08-11T03:25:53;28.80;27.10
7254;DHT22;4060;49.186;9.226;2022-08-11T03:28:31;28.80;27.10
7254;DHT22;4060;49.186;9.226;2022-08-11T03:31:20;28.80;27.20
7254;DHT22;4060;49.186;9.226;2022-08-11T03:34:03;28.70;27.20
7254;DHT22;4060;49.186;9.226;2022-08-11T03:39:49;28.70;27.30
7254;DHT22;4060;49.186;9.226;2022-08-11T03:42:32;28.60;27.30
7254;DHT22;4060;49.186;9.226;2022-08-11T03:45:18;28.60;27.30
7254;DHT22;4060;49.186;9.226;2022-08-11T03:48:13;28.60;27.40
7254;DHT22;4060;49.186;9.226;2022-08-11T03:51:06;28.60;27.40
7254;DHT22;4060;49.186;9.226;2022-08-11T03:53:59;28.60;27.40
7254;DHT22;4060;49.186;9.226;2022-08-11T04:06:38;28.50;27.50
7254;DHT22;4060;49.186;9.226;2022-08-11T04:12:49;28.40;27.60
7254;DHT22;4060;49.186;9.226;2022-08-11T04:15:48;28.40;27.60
7254;DHT22;4060;49.186;9.226;2022-08-11T04:31:17;28.20;27.80
7254;DHT22;4060;49.186;9.226;2022-08-11T04:34:04;28.20;27.90
7254;DHT22;4060;49.186;9.226;2022-08-11T04:47:11;28.10;28.00
7254;DHT22;4060;49.186;9.226;2022-08-11T04:50:30;28.10;28.10
7254;DHT22;4060;49.186;9.226;2022-08-11T04:53:40;28.00;28.10
7254;DHT22;4060;49.186;9.226;2022-08-11T04:56:31;28.00;28.20
7254;DHT22;4060;49.186;9.226;2022-08-11T05:12:14;27.90;28.40
7254;DHT22;4060;49.186;9.226;2022-08-11T05:14:50;27.90;28.30
7254;DHT22;4060;49.186;9.226;2022-08-11T05:17:39;27.90;28.40
7254;DHT22;4060;49.186;9.226;2022-08-11T05:20:29;27.90;28.40
7254;DHT22;4060;49.186;9.226;2022-08-11T05:23:16;27.90;28.50
7254;DHT22;4060;49.186;9.226;2022-08-11T05:26:09;27.90;28.50
7254;DHT22;4060;49.186;9.226;2022-08-11T05:29:02;27.90;28.50
7254;DHT22;4060;49.186;9.226;2022-08-11T05:31:57;27.90;29.00
7254;DHT22;4060;49.186;9.226;2022-08-11T05:34:45;27.90;28.60
7254;DHT22;4060;49.186;9.226;2022-08-11T05:37:39;27.90;28.60
7254;DHT22;4060;49.186;9.226;2022-08-11T05:40:23;27.90;28.70
7254;DHT22;4060;49.186;9.226;2022-08-11T05:43:13;27.90;28.70
7254;DHT22;4060;49.186;9.226;2022-08-11T05:46:00;27.90;28.80
7254;DHT22;4060;49.186;9.226;2022-08-11T05:48:47;27.90;28.80
7254;DHT22;4060;49.186;9.226;2022-08-11T05:51:35;27.90;28.90
7254;DHT22;4060;49.186;9.226;2022-08-11T05:54:23;28.00;29.00
7254;DHT22;4060;49.186;9.226;2022-08-11T05:57:19;28.00;29.00
7254;DHT22;4060;49.186;9.226;2022-08-11T05:59:50;28.00;29.20
7254;DHT22;4060;49.186;9.226;2022-08-11T06:02:28;28.00;29.20
7254;DHT22;4060;49.186;9.226;2022-08-11T06:05:00;28.00;29.20
7254;DHT22;4060;49.186;9.226;2022-08-11T06:07:31;28.10;28.90
7254;DHT22;4060;49.186;9.226;2022-08-11T06:10:05;28.10;29.30
7254;DHT22;4060;49.186;9.226;2022-08-11T06:12:35;28.10;29.30
7254;DHT22;4060;49.186;9.226;2022-08-11T06:15:07;28.20;29.30
7254;DHT22;4060;49.186;9.226;2022-08-11T06:17:45;28.20;29.30
7254;DHT22;4060;49.186;9.226;2022-08-11T06:20:15;28.20;29.30
7254;DHT22;4060;49.186;9.226;2022-08-11T06:22:53;28.20;29.30
7254;DHT22;4060;49.186;9.226;2022-08-11T06:25:33;28.20;29.30
7254;DHT22;4060;49.186;9.226;2022-08-11T06:28:04;28.30;29.40
7254;DHT22;4060;49.186;9.226;2022-08-11T06:30:36;28.30;29.30
7254;DHT22;4060;49.186;9.226;2022-08-11T06:33:10;28.30;29.30
7254;DHT22;4060;49.186;9.226;2022-08-11T06:36:02;28.30;29.40
7254;DHT22;4060;49.186;9.226;2022-08-11T06:38:49;28.40;29.50
7254;DHT22;4060;49.186;9.226;2022-08-11T06:41:28;28.30;29.40
7254;DHT22;4060;49.186;9.226;2022-08-11T06:44:23;28.40;29.50
7254;DHT22;4060;49.186;9.226;2022-08-11T06:47:08;28.40;29.50
7254;DHT22;4060;49.186;9.226;2022-08-11T06:49:42;28.40;29.60
7254;DHT22;4060;49.186;9.226;2022-08-11T06:52:33;28.40;29.60
7254;DHT22;4060;49.186;9.226;2022-08-11T06:55:08;28.40;29.60
7254;DHT22;4060;49.186;9.226;2022-08-11T06:57:46;28.50;29.60
7254;DHT22;4060;49.186;9.226;2022-08-11T07:00:32;28.40;29.60
7254;DHT22;4060;49.186;9.226;2022-08-11T07:03:09;28.50;29.60
7254;DHT22;4060;49.186;9.226;2022-08-11T07:05:47;28.50;29.60
7254;DHT22;4060;49.186;9.226;2022-08-11T07:12:00;28.50;29.70
7254;DHT22;4060;49.186;9.226;2022-08-11T07:14:53;28.50;29.70
7254;DHT22;4060;49.186;9.226;2022-08-11T07:17:43;28.50;29.70
7254;DHT22;4060;49.186;9.226;2022-08-11T07:20:17;28.50;29.70
7254;DHT22;4060;49.186;9.226;2022-08-11T07:23:04;28.50;29.70
7254;DHT22;4060;49.186;9.226;2022-08-11T07:25:56;28.50;29.70
7254;DHT22;4060;49.186;9.226;2022-08-11T07:28:47;28.50;29.70
7254;DHT22;4060;49.186;9.226;2022-08-11T07:31:31;28.60;29.80
7254;DHT22;4060;49.186;9.226;2022-08-11T07:34:18;28.60;29.80
7254;DHT22;4060;49.186;9.226;2022-08-11T07:36:51;28.60;29.80
7254;DHT22;4060;49.186;9.226;2022-08-11T07:39:24;28.60;29.80
7254;DHT22;4060;49.186;9.226;2022-08-11T07:41:57;28.60;29.90
7254;DHT22;4060;49.186;9.226;2022-08-11T07:44:28;28.60;29.90
7254;DHT22;4060;49.186;9.226;2022-08-11T07:47:00;28.60;29.90
7254;DHT22;4060;49.186;9.226;2022-08-11T07:49:48;28.60;29.90
7254;DHT22;4060;49.186;9.226;2022-08-11T07:52:35;28.70;30.00
7254;DHT22;4060;49.186;9.226;2022-08-11T07:55:11;28.70;30.00
7254;DHT22;4060;49.186;9.226;2022-08-11T07:57:44;28.70;30.00
7254;DHT22;4060;49.186;9.226;2022-08-11T08:00:35;28.70;30.00
7254;DHT22;4060;49.186;9.226;2022-08-11T08:03:23;28.70;30.00
7254;DHT22;4060;49.186;9.226;2022-08-11T08:06:10;28.80;30.00
7254;DHT22;4060;49.186;9.226;2022-08-11T08:08:56;28.80;30.00
7254;DHT22;4060;49.186;9.226;2022-08-11T08:11:44;28.80;30.00
7254;DHT22;4060;49.186;9.226;2022-08-11T08:14:31;28.80;30.10
7254;DHT22;4060;49.186;9.226;2022-08-11T08:17:19;28.80;30.50
7254;DHT22;4060;49.186;9.226;2022-08-11T08:20:11;28.80;30.00
7254;DHT22;4060;49.186;9.226;2022-08-11T08:22:42;28.80;30.00
7254;DHT22;4060;49.186;9.226;2022-08-11T08:25:14;28.80;30.00
7254;DHT22;4060;49.186;9.226;2022-08-11T08:27:44;28.90;30.00
7254;DHT22;4060;49.186;9.226;2022-08-11T08:30:14;28.90;29.90
7254;DHT22;4060;49.186;9.226;2022-08-11T08:33:01;28.90;29.90
7254;DHT22;4060;49.186;9.226;2022-08-11T08:35:37;28.90;29.90
7254;DHT22;4060;49.186;9.226;2022-08-11T08:38:09;29.00;29.80
7254;DHT22;4060;49.186;9.226;2022-08-11T08:40:42;29.00;29.80
7254;DHT22;4060;49.186;9.226;2022-08-11T08:43:16;29.00;29.70
7254;DHT22;4060;49.186;9.226;2022-08-11T08:45:46;29.00;29.60
7254;DHT22;4060;49.186;9.226;2022-08-11T08:48:18;29.00;29.60
7254;DHT22;4060;49.186;9.226;2022-08-11T08:51:00;29.10;29.60
7254;DHT22;4060;49.186;9.226;2022-08-11T08:53:49;29.10;29.50
7254;DHT22;4060;49.186;9.226;2022-08-11T08:56:26;29.10;29.40
7254;DHT22;4060;49.186;9.226;2022-08-11T08:59:00;29.10;29.40
7254;DHT22;4060;49.186;9.226;2022-08-11T09:01:35;29.10;29.30
7254;DHT22;4060;49.186;9.226;2022-08-11T09:04:08;29.10;29.20
7254;DHT22;4060;49.186;9.226;2022-08-11T09:06:41;29.20;29.20
7254;DHT22;4060;49.186;9.226;2022-08-11T09:09:12;29.20;29.10
7254;DHT22;4060;49.186;9.226;2022-08-11T09:11:43;29.20;29.00
7254;DHT22;4060;49.186;9.226;2022-08-11T09:14:23;29.20;28.90
7254;DHT22;4060;49.186;9.226;2022-08-11T09:17:13;29.30;28.90
7254;DHT22;4060;49.186;9.226;2022-08-11T09:19:45;29.30;28.70
7254;DHT22;4060;49.186;9.226;2022-08-11T09:22:21;29.30;28.60
7254;DHT22;4060;49.186;9.226;2022-08-11T09:25:08;29.40;28.60
7254;DHT22;4060;49.186;9.226;2022-08-11T09:27:55;29.40;28.40
7254;DHT22;4060;49.186;9.226;2022-08-11T09:30:26;29.40;28.30
7254;DHT22;4060;49.186;9.226;2022-08-11T09:33:00;29.40;28.20
7254;DHT22;4060;49.186;9.226;2022-08-11T09:35:34;29.50;28.20
7254;DHT22;4060;49.186;9.226;2022-08-11T09:38:10;29.50;28.00
7254;DHT22;4060;49.186;9.226;2022-08-11T09:41:00;29.50;27.90
7254;DHT22;4060;49.186;9.226;2022-08-11T09:43:34;29.50;27.70
7254;DHT22;4060;49.186;9.226;2022-08-11T09:46:24;29.60;27.60
7254;DHT22;4060;49.186;9.226;2022-08-11T09:48:59;29.60;27.50
7254;DHT22;4060;49.186;9.226;2022-08-11T09:51:34;29.60;27.40
7254;DHT22;4060;49.186;9.226;2022-08-11T09:54:09;29.70;27.30
7254;DHT22;4060;49.186;9.226;2022-08-11T09:56:41;29.70;27.20
7254;DHT22;4060;49.186;9.226;2022-08-11T09:59:27;29.70;27.10
7254;DHT22;4060;49.186;9.226;2022-08-11T10:01:59;29.70;26.90
7254;DHT22;4060;49.186;9.226;2022-08-11T10:04:38;29.80;26.80
7254;DHT22;4060;49.186;9.226;2022-08-11T10:07:10;29.80;26.60
7254;DHT22;4060;49.186;9.226;2022-08-11T10:09:48;29.80;26.60
7254;DHT22;4060;49.186;9.226;2022-08-11T10:12:24;29.80;26.50
7254;DHT22;4060;49.186;9.226;2022-08-11T10:14:57;29.90;26.40
7254;DHT22;4060;49.186;9.226;2022-08-11T10:17:47;29.90;26.30
7254;DHT22;4060;49.186;9.226;2022-08-11T10:20:39;29.90;26.20
7254;DHT22;4060;49.186;9.226;2022-08-11T10:23:12;30.00;26.10
7254;DHT22;4060;49.186;9.226;2022-08-11T10:26:01;30.00;26.00
7254;DHT22;4060;49.186;9.226;2022-08-11T10:28:47;30.00;25.80
7254;DHT22;4060;49.186;9.226;2022-08-11T10:31:19;30.00;25.70
7254;DHT22;4060;49.186;9.226;2022-08-11T10:34:06;30.10;25.50
7254;DHT22;4060;49.186;9.226;2022-08-11T10:36:39;30.10;25.50
7254;DHT22;4060;49.186;9.226;2022-08-11T10:39:17;30.10;25.40
7254;DHT22;4060;49.186;9.226;2022-08-11T10:41:51;30.10;25.20
7254;DHT22;4060;49.186;9.226;2022-08-11T10:44:41;30.20;25.10
7254;DHT22;4060;49.186;9.226;2022-08-11T10:47:13;30.20;25.00
7254;DHT22;4060;49.186;9.226;2022-08-11T10:50:00;30.20;24.90
7254;DHT22;4060;49.186;9.226;2022-08-11T10:52:48;30.20;24.80
7254;DHT22;4060;49.186;9.226;2022-08-11T10:55:35;30.20;24.80
7254;DHT22;4060;49.186;9.226;2022-08-11T10:58:24;30.30;24.80
7254;DHT22;4060;49.186;9.226;2022-08-11T11:01:10;30.30;24.80
7254;DHT22;4060;49.186;9.226;2022-08-11T11:03:41;30.30;24.70
7254;DHT22;4060;49.186;9.226;2022-08-11T11:06:22;30.30;24.60
7254;DHT22;4060;49.186;9.226;2022-08-11T11:08:58;30.40;24.60
7254;DHT22;4060;49.186;9.226;2022-08-11T11:11:33;30.40;24.60
7254;DHT22;4060;49.186;9.226;2022-08-11T11:14:23;30.40;24.50
7254;DHT22;4060;49.186;9.226;2022-08-11T11:17:13;30.40;24.50
7254;DHT22;4060;49.186;9.226;2022-08-11T11:20:00;30.40;24.40
7254;DHT22;4060;49.186;9.226;2022-08-11T11:22:32;30.50;24.50
7254;DHT22;4060;49.186;9.226;2022-08-11T11:25:37;30.50;24.50
7254;DHT22;4060;49.186;9.226;2022-08-11T11:28:31;30.50;24.50
7254;DHT22;4060;49.186;9.226;2022-08-11T11:31:12;30.60;24.40
7254;DHT22;4060;49.186;9.226;2022-08-11T11:34:14;30.60;24.50
7254;DHT22;4060;49.186;9.226;2022-08-11T11:36:47;30.60;24.40
7254;DHT22;4060;49.186;9.226;2022-08-11T11:39:19;30.60;24.40
7254;DHT22;4060;49.186;9.226;2022-08-11T11:41:49;30.70;24.40
7254;DHT22;4060;49.186;9.226;2022-08-11T11:44:21;30.70;24.40
7254;DHT22;4060;49.186;9.226;2022-08-11T11:46:53;30.80;24.40
7254;DHT22;4060;49.186;9.226;2022-08-11T11:49:26;30.80;24.30
7254;DHT22;4060;49.186;9.226;2022-08-11T11:51:56;30.80;24.20
7254;DHT22;4060;49.186;9.226;2022-08-11T11:54:28;30.80;24.20
7254;DHT22;4060;49.186;9.226;2022-08-11T11:57:00;30.90;24.20
7254;DHT22;4060;49.186;9.226;2022-08-11T11:59:53;30.90;24.20
7254;DHT22;4060;49.186;9.226;2022-08-11T12:02:47;30.90;24.10
7254;DHT22;4060;49.186;9.226;2022-08-11T12:05:18;31.00;24.10
7254;DHT22;4060;49.186;9.226;2022-08-11T12:07:49;31.00;24.00
7254;DHT22;4060;49.186;9.226;2022-08-11T12:10:35;31.00;24.00
7254;DHT22;4060;49.186;9.226;2022-08-11T12:13:07;31.00;23.90
7254;DHT22;4060;49.186;9.226;2022-08-11T12:15:55;31.10;23.90
7254;DHT22;4060;49.186;9.226;2022-08-11T12:18:35;31.10;23.90
7254;DHT22;4060;49.186;9.226;2022-08-11T12:21:06;31.10;23.80
7254;DHT22;4060;49.186;9.226;2022-08-11T12:23:37;31.20;23.80
7254;DHT22;4060;49.186;9.226;2022-08-11T12:26:24;31.20;23.80
7254;DHT22;4060;49.186;9.226;2022-08-11T12:29:10;31.30;23.90
7254;DHT22;4060;49.186;9.226;2022-08-11T12:31:41;31.30;23.90
7254;DHT22;4060;49.186;9.226;2022-08-11T12:34:14;31.30;23.90
7254;DHT22;4060;49.186;9.226;2022-08-11T12:36:51;31.30;23.90
7254;DHT22;4060;49.186;9.226;2022-08-11T12:39:23;31.30;23.90
7254;DHT22;4060;49.186;9.226;2022-08-11T12:42:16;31.40;23.90
7254;DHT22;4060;49.186;9.226;2022-08-11T12:45:09;31.40;23.90
7254;DHT22;4060;49.186;9.226;2022-08-11T12:48:07;31.50;23.90
7254;DHT22;4060;49.186;9.226;2022-08-11T12:51:02;31.50;23.90
7254;DHT22;4060;49.186;9.226;2022-08-11T12:53:54;31.50;23.80
7254;DHT22;4060;49.186;9.226;2022-08-11T12:56:31;31.60;23.80
7254;DHT22;4060;49.186;9.226;2022-08-11T12:59:22;31.60;23.80
7254;DHT22;4060;49.186;9.226;2022-08-11T13:02:11;31.60;23.70
7254;DHT22;4060;49.186;9.226;2022-08-11T13:05:01;31.70;23.60
7254;DHT22;4060;49.186;9.226;2022-08-11T13:07:33;31.70;23.60
7254;DHT22;4060;49.186;9.226;2022-08-11T13:10:07;31.70;23.50
7254;DHT22;4060;49.186;9.226;2022-08-11T13:12:40;31.70;23.50
7254;DHT22;4060;49.186;9.226;2022-08-11T13:15:18;31.80;23.50
7254;DHT22;4060;49.186;9.226;2022-08-11T13:17:50;31.80;23.50
7254;DHT22;4060;49.186;9.226;2022-08-11T13:20:22;31.80;23.50
7254;DHT22;4060;49.186;9.226;2022-08-11T13:22:56;31.90;23.50
7254;DHT22;4060;49.186;9.226;2022-08-11T13:25:26;32.00;23.60
7254;DHT22;4060;49.186;9.226;2022-08-11T13:27:59;31.90;23.50
7254;DHT22;4060;49.186;9.226;2022-08-11T13:30:31;32.00;23.60
7254;DHT22;4060;49.186;9.226;2022-08-11T13:33:14;32.00;23.50
7254;DHT22;4060;49.186;9.226;2022-08-11T13:35:45;32.00;23.50
7254;DHT22;4060;49.186;9.226;2022-08-11T13:38:19;32.10;23.40
7254;DHT22;4060;49.186;9.226;2022-08-11T13:40:49;32.10;23.40
7254;DHT22;4060;49.186;9.226;2022-08-11T13:43:21;32.10;23.40
7254;DHT22;4060;49.186;9.226;2022-08-11T13:45:52;32.10;23.30
7254;DHT22;4060;49.186;9.226;2022-08-11T13:48:43;32.20;23.30
7254;DHT22;4060;49.186;9.226;2022-08-11T13:51:14;32.20;23.30
7254;DHT22;4060;49.186;9.226;2022-08-11T13:54:04;32.20;23.20
7254;DHT22;4060;49.186;9.226;2022-08-11T13:56:37;32.30;23.20
7254;DHT22;4060;49.186;9.226;2022-08-11T13:59:08;32.30;23.20
7254;DHT22;4060;49.186;9.226;2022-08-11T14:01:41;32.30;23.10
7254;DHT22;4060;49.186;9.226;2022-08-11T14:04:15;32.40;23.10
7254;DHT22;4060;49.186;9.226;2022-08-11T14:06:50;32.30;23.00
7254;DHT22;4060;49.186;9.226;2022-08-11T14:09:26;32.40;23.00
7254;DHT22;4060;49.186;9.226;2022-08-11T14:11:59;32.40;23.00
7254;DHT22;4060;49.186;9.226;2022-08-11T14:14:48;32.50;23.00
7254;DHT22;4060;49.186;9.226;2022-08-11T14:17:21;32.50;23.00
7254;DHT22;4060;49.186;9.226;2022-08-11T14:19:52;32.50;22.90
7254;DHT22;4060;49.186;9.226;2022-08-11T14:22:22;32.50;22.80
7254;DHT22;4060;49.186;9.226;2022-08-11T14:24:53;32.60;22.80
7254;DHT22;4060;49.186;9.226;2022-08-11T14:27:24;32.60;22.70
7254;DHT22;4060;49.186;9.226;2022-08-11T14:29:59;32.60;22.70
7254;DHT22;4060;49.186;9.226;2022-08-11T14:32:30;32.60;22.70
7254;DHT22;4060;49.186;9.226;2022-08-11T14:35:00;32.60;22.70
7254;DHT22;4060;49.186;9.226;2022-08-11T14:37:31;32.70;22.70
7254;DHT22;4060;49.186;9.226;2022-08-11T14:40:05;32.70;22.60
7254;DHT22;4060;49.186;9.226;2022-08-11T14:42:58;32.70;22.60
7254;DHT22;4060;49.186;9.226;2022-08-11T14:45:45;32.70;22.50
7254;DHT22;4060;49.186;9.226;2022-08-11T14:48:32;32.80;22.50
7254;DHT22;4060;49.186;9.226;2022-08-11T14:51:05;32.80;22.50
7254;DHT22;4060;49.186;9.226;2022-08-11T14:53:36;32.80;22.50
7254;DHT22;4060;49.186;9.226;2022-08-11T14:56:08;32.80;22.40
7254;DHT22;4060;49.186;9.226;2022-08-11T14:58:55;32.80;22.40
7254;DHT22;4060;49.186;9.226;2022-08-11T15:01:25;32.90;22.40
7254;DHT22;4060;49.186;9.226;2022-08-11T15:04:11;32.90;22.30
7254;DHT22;4060;49.186;9.226;2022-08-11T15:06:42;32.90;22.30
7254;DHT22;4060;49.186;9.226;2022-08-11T15:09:12;32.90;22.30
7254;DHT22;4060;49.186;9.226;2022-08-11T15:11:44;33.00;22.30
7254;DHT22;4060;49.186;9.226;2022-08-11T15:14:31;33.00;22.20
7254;DHT22;4060;49.186;9.226;2022-08-11T15:17:17;33.00;22.30
7254;DHT22;4060;49.186;9.226;2022-08-11T15:19:48;33.00;22.20
7254;DHT22;4060;49.186;9.226;2022-08-11T15:22:31;33.00;22.20
7254;DHT22;4060;49.186;9.226;2022-08-11T15:25:18;33.00;22.20
7254;DHT22;4060;49.186;9.226;2022-08-11T15:27:51;33.00;22.10
7254;DHT22;4060;49.186;9.226;2022-08-11T15:30:41;33.10;22.20
7254;DHT22;4060;49.186;9.226;2022-08-11T15:33:29;33.10;22.20
7254;DHT22;4060;49.186;9.226;2022-08-11T15:36:16;33.10;22.10
7254;DHT22;4060;49.186;9.226;2022-08-11T15:39:14;33.10;22.10
7254;DHT22;4060;49.186;9.226;2022-08-11T15:41:51;33.20;22.20
7254;DHT22;4060;49.186;9.226;2022-08-11T15:44:41;33.20;22.10
7254;DHT22;4060;49.186;9.226;2022-08-11T15:47:37;33.20;22.10
7254;DHT22;4060;49.186;9.226;2022-08-11T15:50:14;33.20;22.10
7254;DHT22;4060;49.186;9.226;2022-08-11T15:52:49;33.20;22.10
7254;DHT22;4060;49.186;9.226;2022-08-11T15:55:23;33.20;22.00
7254;DHT22;4060;49.186;9.226;2022-08-11T15:57:55;33.20;22.00
7254;DHT22;4060;49.186;9.226;2022-08-11T16:00:45;33.30;22.00
7254;DHT22;4060;49.186;9.226;2022-08-11T16:03:39;33.30;22.00
7254;DHT22;4060;49.186;9.226;2022-08-11T16:06:27;33.30;21.90
7254;DHT22;4060;49.186;9.226;2022-08-11T16:08:58;33.30;21.90
7254;DHT22;4060;49.186;9.226;2022-08-11T16:11:34;33.30;21.90
7254;DHT22;4060;49.186;9.226;2022-08-11T16:14:05;33.30;21.80
7254;DHT22;4060;49.186;9.226;2022-08-11T16:16:53;33.30;21.80
7254;DHT22;4060;49.186;9.226;2022-08-11T16:19:25;33.30;21.60
7254;DHT22;4060;49.186;9.226;2022-08-11T16:22:04;33.30;21.40
7254;DHT22;4060;49.186;9.226;2022-08-11T16:24:38;33.50;21.30
7254;DHT22;4060;49.186;9.226;2022-08-11T16:27:10;33.70;21.20
7254;DHT22;4060;49.186;9.226;2022-08-11T16:29:42;34.00;21.10
7254;DHT22;4060;49.186;9.226;2022-08-11T16:32:19;34.30;20.90
7254;DHT22;4060;49.186;9.226;2022-08-11T16:34:54;34.60;20.70
7254;DHT22;4060;49.186;9.226;2022-08-11T16:37:41;34.80;20.50
7254;DHT22;4060;49.186;9.226;2022-08-11T16:40:28;35.10;20.40
7254;DHT22;4060;49.186;9.226;2022-08-11T16:43:00;35.20;20.30
7254;DHT22;4060;49.186;9.226;2022-08-11T16:45:48;35.40;20.10
7254;DHT22;4060;49.186;9.226;2022-08-11T16:48:40;35.50;20.00
7254;DHT22;4060;49.186;9.226;2022-08-11T16:51:11;35.60;19.90
7254;DHT22;4060;49.186;9.226;2022-08-11T16:53:42;35.70;19.70
7254;DHT22;4060;49.186;9.226;2022-08-11T16:56:15;35.80;19.60
7254;DHT22;4060;49.186;9.226;2022-08-11T16:58:51;35.80;19.50
7254;DHT22;4060;49.186;9.226;2022-08-11T17:01:39;35.90;19.40
7254;DHT22;4060;49.186;9.226;2022-08-11T17:04:18;36.00;19.50
7254;DHT22;4060;49.186;9.226;2022-08-11T17:07:05;36.00;19.40
7254;DHT22;4060;49.186;9.226;2022-08-11T17:10:02;36.00;19.40
7254;DHT22;4060;49.186;9.226;2022-08-11T17:12:50;36.00;19.30
7254;DHT22;4060;49.186;9.226;2022-08-11T17:15:43;36.00;19.20
7254;DHT22;4060;49.186;9.226;2022-08-11T17:18:32;36.10;19.20
7254;DHT22;4060;49.186;9.226;2022-08-11T17:21:15;36.10;19.20
7254;DHT22;4060;49.186;9.226;2022-08-11T17:23:49;36.10;19.10
7254;DHT22;4060;49.186;9.226;2022-08-11T17:26:26;36.00;19.10
7254;DHT22;4060;49.186;9.226;2022-08-11T17:29:19;36.00;19.00
7254;DHT22;4060;49.186;9.226;2022-08-11T17:31:49;36.10;19.10
7254;DHT22;4060;49.186;9.226;2022-08-11T17:34:36;36.00;19.00
7254;DHT22;4060;49.186;9.226;2022-08-11T17:37:26;36.00;19.00
7254;DHT22;4060;49.186;9.226;2022-08-11T17:39:57;36.00;19.00
7254;DHT22;4060;49.186;9.226;2022-08-11T17:42:37;36.00;19.00
7254;DHT22;4060;49.186;9.226;2022-08-11T17:45:24;36.00;19.00
7254;DHT22;4060;49.186;9.226;2022-08-11T17:48:11;36.00;19.10
7254;DHT22;4060;49.186;9.226;2022-08-11T17:50:56;35.90;19.00
7254;DHT22;4060;49.186;9.226;2022-08-11T17:53:31;35.90;19.00
7254;DHT22;4060;49.186;9.226;2022-08-11T17:56:19;35.90;19.00
7254;DHT22;4060;49.186;9.226;2022-08-11T17:59:07;35.90;19.00
7254;DHT22;4060;49.186;9.226;2022-08-11T18:01:55;35.80;19.00
7254;DHT22;4060;49.186;9.226;2022-08-11T18:04:49;35.80;19.00
7254;DHT22;4060;49.186;9.226;2022-08-11T18:07:18;35.80;19.10
7254;DHT22;4060;49.186;9.226;2022-08-11T18:10:09;35.80;19.10
7254;DHT22;4060;49.186;9.226;2022-08-11T18:12:56;35.70;19.10
7254;DHT22;4060;49.186;9.226;2022-08-11T18:15:43;35.70;19.10
7254;DHT22;4060;49.186;9.226;2022-08-11T18:18:29;35.70;19.20
7254;DHT22;4060;49.186;9.226;2022-08-11T18:21:17;35.60;19.20
7254;DHT22;4060;49.186;9.226;2022-08-11T18:24:07;35.60;19.20
7254;DHT22;4060;49.186;9.226;2022-08-11T18:26:59;35.60;19.30
7254;DHT22;4060;49.186;9.226;2022-08-11T18:29:48;35.50;19.30
7254;DHT22;4060;49.186;9.226;2022-08-11T18:32:35;35.50;19.50
7254;DHT22;4060;49.186;9.226;2022-08-11T18:35:23;35.50;19.50
7254;DHT22;4060;49.186;9.226;2022-08-11T18:38:10;35.50;19.50
7254;DHT22;4060;49.186;9.226;2022-08-11T18:40:58;35.50;19.50
7254;DHT22;4060;49.186;9.226;2022-08-11T18:43:48;35.40;19.50
7254;DHT22;4060;49.186;9.226;2022-08-11T18:46:36;35.40;19.60
7254;DHT22;4060;49.186;9.226;2022-08-11T18:49:26;35.40;19.60
7254;DHT22;4060;49.186;9.226;2022-08-11T18:52:14;35.30;19.60